sensor_id;sensor_type;location;lat;lon;timestamp;pressure;altitude;pressure_sealevel;temperature;humidity
45071;BME280;30836;48.906;9.140;2023-04-30T00:00:01;989.27;;;19.89;43.91
45071;BME280;30836;48.906;9.140;2023-04-30T00:01:02;989.29;;;19.83;43.90
45071;BME280;30836;48.906;9.140;2023-04-30T00:02:02;989.27;;;19.77;44.07
45071;BME280;30836;48.906;9.140;2023-04-30T00:03:03;989.29;;;19.72;44.23
45071;BME280;30836;48.906;9.140;2023-04-30T00:04:03;989.31;;;19.71;44.22
45071;BME280;30836;48.906;9.140;2023-04-30T00:05:04;989.31;;;19.71;44.26
45071;BME280;30836;48.906;9.140;2023-04-30T00:06:04;989.31;;;19.71;44.35
45071;BME280;30836;48.906;9.140;2023-04-30T00:07:05;989.31;;;19.71;44.33
45071;BME280;30836;48.906;9.140;2023-04-30T00:08:05;989.33;;;19.72;44.19
45071;BME280;30836;48.906;9.140;2023-04-30T00:09:06;989.33;;;19.72;44.26
45071;BME280;30836;48.906;9.140;2023-04-30T00:10:09;989.31;;;19.71;44.25
45071;BME280;30836;48.906;9.140;2023-04-30T00:11:10;989.29;;;19.70;44.06
45071;BME280;30836;48.906;9.140;2023-04-30T00:12:10;989.27;;;19.70;44.08
45071;BME280;30836;48.906;9.140;2023-04-30T00:13:11;989.27;;;19.69;44.05
45071;BME280;30836;48.906;9.140;2023-04-30T00:14:11;989.29;;;19.67;44.16
45071;BME280;30836;48.906;9.140;2023-04-30T00:15:12;989.27;;;19.63;44.29
45071;BME280;30836;48.906;9.140;2023-04-30T00:16:12;989.29;;;19.60;44.42
45071;BME280;30836;48.906;9.140;2023-04-30T00:17:12;989.31;;;19.58;44.44
45071;BME280;30836;48.906;9.140;2023-04-30T00:18:13;989.31;;;19.58;44.40
45071;BME280;30836;48.906;9.140;2023-04-30T00:19:13;989.29;;;19.57;44.47
45071;BME280;30836;48.906;9.140;2023-04-30T00:20:14;989.33;;;19.56;44.51
45071;BME280;30836;48.906;9.140;2023-04-30T00:21:14;989.33;;;19.55;44.51
45071;BME280;30836;48.906;9.140;2023-04-30T00:22:15;989.31;;;19.53;44.49
45071;BME280;30836;48.906;9.140;2023-04-30T00:23:15;989.35;;;19.52;44.47
45071;BME280;30836;48.906;9.140;2023-04-30T00:24:15;989.35;;;19.52;44.50
45071;BME280;30836;48.906;9.140;2023-04-30T00:25:16;989.37;;;19.52;44.51
45071;BME280;30836;48.906;9.140;2023-04-30T00:26:16;989.39;;;19.52;44.47
45071;BME280;30836;48.906;9.140;2023-04-30T00:27:17;989.37;;;19.50;44.50
45071;BME280;30836;48.906;9.140;2023-04-30T00:28:17;989.39;;;19.48;44.58
45071;BME280;30836;48.906;9.140;2023-04-30T00:29:18;989.41;;;19.47;44.64
45071;BME280;30836;48.906;9.140;2023-04-30T00:30:18;989.41;;;19.45;44.66
45071;BME280;30836;48.906;9.140;2023-04-30T00:31:18;989.41;;;19.44;44.78
45071;BME280;30836;48.906;9.140;2023-04-30T00:32:19;989.41;;;19.45;44.75
45071;BME280;30836;48.906;9.140;2023-04-30T00:33:19;989.41;;;19.47;44.68
45071;BME280;30836;48.906;9.140;2023-04-30T00:34:20;989.43;;;19.50;44.58
45071;BME280;30836;48.906;9.140;2023-04-30T00:35:20;989.43;;;19.53;44.60
45071;BME280;30836;48.906;9.140;2023-04-30T00:36:20;989.43;;;19.54;44.56
45071;BME280;30836;48.906;9.140;2023-04-30T00:37:21;989.39;;;19.55;44.58
45071;BME280;30836;48.906;9.140;2023-04-30T00:38:21;989.37;;;19.55;44.51
45071;BME280;30836;48.906;9.140;2023-04-30T00:39:22;989.37;;;19.55;44.46
45071;BME280;30836;48.906;9.140;2023-04-30T00:40:22;989.39;;;19.54;44.46
45071;BME280;30836;48.906;9.140;2023-04-30T00:41:23;989.41;;;19.53;44.46
45071;BME280;30836;48.906;9.140;2023-04-30T00:42:24;989.41;;;19.52;44.49
45071;BME280;30836;48.906;9.140;2023-04-30T00:43:25;989.41;;;19.50;44.48
45071;BME280;30836;48.906;9.140;2023-04-30T00:44:25;989.43;;;19.48;44.54
45071;BME280;30836;48.906;9.140;2023-04-30T00:45:26;989.45;;;19.46;44.51
45071;BME280;30836;48.906;9.140;2023-04-30T00:46:26;989.47;;;19.44;44.58
45071;BME280;30836;48.906;9.140;2023-04-30T00:47:27;989.47;;;19.42;44.66
45071;BME280;30836;48.906;9.140;2023-04-30T00:48:28;989.49;;;19.42;44.66
45071;BME280;30836;48.906;9.140;2023-04-30T00:49:28;989.51;;;19.43;44.66
45071;BME280;30836;48.906;9.140;2023-04-30T00:50:28;989.53;;;19.40;44.49
45071;BME280;30836;48.906;9.140;2023-04-30T00:51:33;989.51;;;19.36;44.66
45071;BME280;30836;48.906;9.140;2023-04-30T00:52:34;989.53;;;19.33;44.81
45071;BME280;30836;48.906;9.140;2023-04-30T00:53:35;989.51;;;19.26;44.61
45071;BME280;30836;48.906;9.140;2023-04-30T00:54:37;989.55;;;19.21;44.66
45071;BME280;30836;48.906;9.140;2023-04-30T00:55:38;989.53;;;19.29;44.30
45071;BME280;30836;48.906;9.140;2023-04-30T00:56:40;989.53;;;19.44;43.79
45071;BME280;30836;48.906;9.140;2023-04-30T00:57:40;989.51;;;19.60;43.43
45071;BME280;30836;48.906;9.140;2023-04-30T00:58:41;989.51;;;19.74;42.98
45071;BME280;30836;48.906;9.140;2023-04-30T00:59:41;989.49;;;19.86;42.79
45071;BME280;30836;48.906;9.140;2023-04-30T01:00:42;989.49;;;19.96;42.67
45071;BME280;30836;48.906;9.140;2023-04-30T01:01:42;989.49;;;20.07;42.49
45071;BME280;30836;48.906;9.140;2023-04-30T01:02:43;989.51;;;20.17;42.36
45071;BME280;30836;48.906;9.140;2023-04-30T01:03:43;989.49;;;20.28;42.15
45071;BME280;30836;48.906;9.140;2023-04-30T01:04:44;989.47;;;20.37;41.98
45071;BME280;30836;48.906;9.140;2023-04-30T01:05:45;989.49;;;20.45;41.92
45071;BME280;30836;48.906;9.140;2023-04-30T01:06:46;989.47;;;20.52;41.80
45071;BME280;30836;48.906;9.140;2023-04-30T01:07:46;989.45;;;20.57;41.56
45071;BME280;30836;48.906;9.140;2023-04-30T01:08:47;989.47;;;20.60;41.44
45071;BME280;30836;48.906;9.140;2023-04-30T01:09:48;989.47;;;20.64;41.37
45071;BME280;30836;48.906;9.140;2023-04-30T01:13:11;989.47;;;20.69;41.20
45071;BME280;30836;48.906;9.140;2023-04-30T01:17:47;989.39;;;20.77;41.16
45071;BME280;30836;48.906;9.140;2023-04-30T01:18:58;989.41;;;20.78;41.15
45071;BME280;30836;48.906;9.140;2023-04-30T01:20:04;989.41;;;20.79;41.12
45071;BME280;30836;48.906;9.140;2023-04-30T01:21:06;989.41;;;20.79;41.18
45071;BME280;30836;48.906;9.140;2023-04-30T01:22:09;989.41;;;20.80;41.22
45071;BME280;30836;48.906;9.140;2023-04-30T01:28:51;989.41;;;20.83;41.26
45071;BME280;30836;48.906;9.140;2023-04-30T01:29:52;989.39;;;20.81;41.38
45071;BME280;30836;48.906;9.140;2023-04-30T01:30:53;989.37;;;20.79;41.45
45071;BME280;30836;48.906;9.140;2023-04-30T01:31:54;989.37;;;20.79;41.41
45071;BME280;30836;48.906;9.140;2023-04-30T01:32:54;989.35;;;20.80;41.42
45071;BME280;30836;48.906;9.140;2023-04-30T01:33:55;989.35;;;20.81;41.40
45071;BME280;30836;48.906;9.140;2023-04-30T01:34:55;989.33;;;20.81;41.40
45071;BME280;30836;48.906;9.140;2023-04-30T01:38:19;989.37;;;20.84;41.37
45071;BME280;30836;48.906;9.140;2023-04-30T01:40:46;989.37;;;20.86;41.30
45071;BME280;30836;48.906;9.140;2023-04-30T01:46:29;989.37;;;20.82;41.42
45071;BME280;30836;48.906;9.140;2023-04-30T01:48:51;989.35;;;20.67;41.57
45071;BME280;30836;48.906;9.140;2023-04-30T01:49:56;989.33;;;20.58;41.44
45071;BME280;30836;48.906;9.140;2023-04-30T01:51:07;989.29;;;20.52;41.64
45071;BME280;30836;48.906;9.140;2023-04-30T01:52:17;989.27;;;20.48;41.75
45071;BME280;30836;48.906;9.140;2023-04-30T01:53:20;989.29;;;20.42;41.97
45071;BME280;30836;48.906;9.140;2023-04-30T01:55:36;989.29;;;20.36;41.96
45071;BME280;30836;48.906;9.140;2023-04-30T01:56:51;989.29;;;20.32;41.98
45071;BME280;30836;48.906;9.140;2023-04-30T01:58:02;989.33;;;20.24;42.38
45071;BME280;30836;48.906;9.140;2023-04-30T01:59:05;989.33;;;20.17;42.31
45071;BME280;30836;48.906;9.140;2023-04-30T02:00:06;989.33;;;20.13;42.39
45071;BME280;30836;48.906;9.140;2023-04-30T02:01:23;989.33;;;20.07;42.50
45071;BME280;30836;48.906;9.140;2023-04-30T02:02:18;989.33;;;20.03;42.34
45071;BME280;30836;48.906;9.140;2023-04-30T02:03:19;989.37;;;20.05;42.27
45071;BME280;30836;48.906;9.140;2023-04-30T02:04:19;989.35;;;20.09;42.23
45071;BME280;30836;48.906;9.140;2023-04-30T02:05:20;989.37;;;20.14;42.18
45071;BME280;30836;48.906;9.140;2023-04-30T02:06:20;989.35;;;20.19;42.03
45071;BME280;30836;48.906;9.140;2023-04-30T02:08:36;989.37;;;20.30;41.87
45071;BME280;30836;48.906;9.140;2023-04-30T02:09:36;989.35;;;20.36;41.81
45071;BME280;30836;48.906;9.140;2023-04-30T02:10:37;989.33;;;20.39;41.77
45071;BME280;30836;48.906;9.140;2023-04-30T02:11:37;989.33;;;20.43;41.78
45071;BME280;30836;48.906;9.140;2023-04-30T02:12:38;989.33;;;20.47;41.74
45071;BME280;30836;48.906;9.140;2023-04-30T02:13:39;989.29;;;20.51;41.62
45071;BME280;30836;48.906;9.140;2023-04-30T02:14:39;989.27;;;20.54;41.60
45071;BME280;30836;48.906;9.140;2023-04-30T02:15:40;989.25;;;20.57;41.62
45071;BME280;30836;48.906;9.140;2023-04-30T02:16:40;989.27;;;20.59;41.57
45071;BME280;30836;48.906;9.140;2023-04-30T02:17:41;989.25;;;20.62;41.56
45071;BME280;30836;48.906;9.140;2023-04-30T02:18:41;989.23;;;20.65;41.50
45071;BME280;30836;48.906;9.140;2023-04-30T02:19:42;989.21;;;20.68;41.38
45071;BME280;30836;48.906;9.140;2023-04-30T02:20:42;989.23;;;20.70;41.41
45071;BME280;30836;48.906;9.140;2023-04-30T02:21:42;989.21;;;20.71;41.41
45071;BME280;30836;48.906;9.140;2023-04-30T02:22:43;989.25;;;20.72;41.39
45071;BME280;30836;48.906;9.140;2023-04-30T02:23:43;989.27;;;20.74;41.33
45071;BME280;30836;48.906;9.140;2023-04-30T02:24:44;989.25;;;20.75;41.30
45071;BME280;30836;48.906;9.140;2023-04-30T02:25:44;989.25;;;20.76;41.21
45071;BME280;30836;48.906;9.140;2023-04-30T02:26:45;989.23;;;20.75;41.30
45071;BME280;30836;48.906;9.140;2023-04-30T02:27:45;989.25;;;20.71;41.40
45071;BME280;30836;48.906;9.140;2023-04-30T02:28:45;989.23;;;20.69;41.48
45071;BME280;30836;48.906;9.140;2023-04-30T02:29:46;989.23;;;20.68;41.48
45071;BME280;30836;48.906;9.140;2023-04-30T02:30:47;989.23;;;20.67;41.38
45071;BME280;30836;48.906;9.140;2023-04-30T02:31:47;989.23;;;20.67;41.44
45071;BME280;30836;48.906;9.140;2023-04-30T02:32:47;989.23;;;20.66;41.38
45071;BME280;30836;48.906;9.140;2023-04-30T02:33:48;989.23;;;20.63;41.43
45071;BME280;30836;48.906;9.140;2023-04-30T02:34:48;989.23;;;20.61;41.45
45071;BME280;30836;48.906;9.140;2023-04-30T02:35:49;989.23;;;20.60;41.47
45071;BME280;30836;48.906;9.140;2023-04-30T02:36:49;989.21;;;20.59;41.59
45071;BME280;30836;48.906;9.140;2023-04-30T02:37:49;989.23;;;20.56;41.64
45071;BME280;30836;48.906;9.140;2023-04-30T02:38:50;989.23;;;20.55;41.63
45071;BME280;30836;48.906;9.140;2023-04-30T02:39:50;989.23;;;20.55;41.63
45071;BME280;30836;48.906;9.140;2023-04-30T02:40:52;989.19;;;20.56;41.66
45071;BME280;30836;48.906;9.140;2023-04-30T02:41:52;989.19;;;20.57;41.59
45071;BME280;30836;48.906;9.140;2023-04-30T02:42:52;989.23;;;20.58;41.56
45071;BME280;30836;48.906;9.140;2023-04-30T02:43:53;989.19;;;20.58;41.46
45071;BME280;30836;48.906;9.140;2023-04-30T02:44:53;989.19;;;20.55;41.62
45071;BME280;30836;48.906;9.140;2023-04-30T02:45:54;989.19;;;20.50;41.70
45071;BME280;30836;48.906;9.140;2023-04-30T02:46:54;989.17;;;20.46;41.83
45071;BME280;30836;48.906;9.140;2023-04-30T02:47:55;989.17;;;20.44;41.84
45071;BME280;30836;48.906;9.140;2023-04-30T02:48:55;989.19;;;20.44;41.82
45071;BME280;30836;48.906;9.140;2023-04-30T02:49:55;989.21;;;20.45;41.79
45071;BME280;30836;48.906;9.140;2023-04-30T02:50:56;989.23;;;20.47;41.79
45071;BME280;30836;48.906;9.140;2023-04-30T02:51:56;989.21;;;20.48;41.81
45071;BME280;30836;48.906;9.140;2023-04-30T02:52:57;989.23;;;20.50;41.88
45071;BME280;30836;48.906;9.140;2023-04-30T02:53:57;989.23;;;20.52;41.86
45071;BME280;30836;48.906;9.140;2023-04-30T02:54:57;989.23;;;20.54;41.81
45071;BME280;30836;48.906;9.140;2023-04-30T02:55:58;989.21;;;20.56;41.81
45071;BME280;30836;48.906;9.140;2023-04-30T02:56:58;989.21;;;20.57;41.78
45071;BME280;30836;48.906;9.140;2023-04-30T02:57:59;989.21;;;20.56;41.91
45071;BME280;30836;48.906;9.140;2023-04-30T02:58:59;989.21;;;20.55;41.82
45071;BME280;30836;48.906;9.140;2023-04-30T03:00:00;989.21;;;20.55;41.84
45071;BME280;30836;48.906;9.140;2023-04-30T03:01:00;989.21;;;20.54;41.85
45071;BME280;30836;48.906;9.140;2023-04-30T03:02:01;989.21;;;20.53;41.87
45071;BME280;30836;48.906;9.140;2023-04-30T03:03:01;989.21;;;20.51;41.97
45071;BME280;30836;48.906;9.140;2023-04-30T03:04:02;989.21;;;20.49;41.91
45071;BME280;30836;48.906;9.140;2023-04-30T03:05:02;989.21;;;20.47;41.92
45071;BME280;30836;48.906;9.140;2023-04-30T03:06:03;989.19;;;20.46;41.87
45071;BME280;30836;48.906;9.140;2023-04-30T03:07:03;989.14;;;20.45;41.87
45071;BME280;30836;48.906;9.140;2023-04-30T03:08:04;989.15;;;20.44;41.83
45071;BME280;30836;48.906;9.140;2023-04-30T03:09:04;989.14;;;20.41;41.90
45071;BME280;30836;48.906;9.140;2023-04-30T03:10:05;989.15;;;20.37;42.07
45071;BME280;30836;48.906;9.140;2023-04-30T03:11:06;989.15;;;20.35;42.03
45071;BME280;30836;48.906;9.140;2023-04-30T03:12:06;989.15;;;20.34;42.10
45071;BME280;30836;48.906;9.140;2023-04-30T03:13:07;989.14;;;20.33;42.13
45071;BME280;30836;48.906;9.140;2023-04-30T03:14:07;989.14;;;20.32;42.02
45071;BME280;30836;48.906;9.140;2023-04-30T03:15:08;989.10;;;20.31;42.00
45071;BME280;30836;48.906;9.140;2023-04-30T03:16:08;989.12;;;20.30;42.06
45071;BME280;30836;48.906;9.140;2023-04-30T03:17:09;989.12;;;20.29;42.09
45071;BME280;30836;48.906;9.140;2023-04-30T03:18:09;989.12;;;20.28;42.18
45071;BME280;30836;48.906;9.140;2023-04-30T03:19:10;989.12;;;20.25;42.30
45071;BME280;30836;48.906;9.140;2023-04-30T03:20:10;989.12;;;20.20;42.34
45071;BME280;30836;48.906;9.140;2023-04-30T03:21:11;989.14;;;20.17;42.34
45071;BME280;30836;48.906;9.140;2023-04-30T03:22:11;989.12;;;20.17;42.28
45071;BME280;30836;48.906;9.140;2023-04-30T03:23:12;989.14;;;20.18;42.25
45071;BME280;30836;48.906;9.140;2023-04-30T03:24:12;989.14;;;20.19;42.17
45071;BME280;30836;48.906;9.140;2023-04-30T03:25:13;989.14;;;20.19;42.17
45071;BME280;30836;48.906;9.140;2023-04-30T03:26:13;989.12;;;20.18;42.31
45071;BME280;30836;48.906;9.140;2023-04-30T03:27:14;989.12;;;20.14;42.24
45071;BME280;30836;48.906;9.140;2023-04-30T03:28:14;989.12;;;20.07;42.41
45071;BME280;30836;48.906;9.140;2023-04-30T03:29:14;989.14;;;19.99;42.53
45071;BME280;30836;48.906;9.140;2023-04-30T03:30:15;989.14;;;19.94;42.51
45071;BME280;30836;48.906;9.140;2023-04-30T03:31:15;989.14;;;19.91;42.70
45071;BME280;30836;48.906;9.140;2023-04-30T03:32:16;989.12;;;19.90;42.66
45071;BME280;30836;48.906;9.140;2023-04-30T03:33:16;989.12;;;19.90;42.67
45071;BME280;30836;48.906;9.140;2023-04-30T03:34:17;989.14;;;19.90;42.45
45071;BME280;30836;48.906;9.140;2023-04-30T03:35:18;989.15;;;19.88;42.52
45071;BME280;30836;48.906;9.140;2023-04-30T03:36:18;989.14;;;19.82;42.69
45071;BME280;30836;48.906;9.140;2023-04-30T03:37:18;989.12;;;19.73;42.85
45071;BME280;30836;48.906;9.140;2023-04-30T03:38:19;989.12;;;19.66;43.02
45071;BME280;30836;48.906;9.140;2023-04-30T03:39:19;989.14;;;19.55;43.43
45071;BME280;30836;48.906;9.140;2023-04-30T03:40:20;989.14;;;19.41;43.72
45071;BME280;30836;48.906;9.140;2023-04-30T03:41:20;989.14;;;19.29;43.86
45071;BME280;30836;48.906;9.140;2023-04-30T03:42:21;989.14;;;19.19;44.14
45071;BME280;30836;48.906;9.140;2023-04-30T03:43:21;989.14;;;19.11;44.31
45071;BME280;30836;48.906;9.140;2023-04-30T03:44:21;989.15;;;19.04;44.43
45071;BME280;30836;48.906;9.140;2023-04-30T03:45:22;989.14;;;18.98;44.52
45071;BME280;30836;48.906;9.140;2023-04-30T03:46:22;989.14;;;18.90;44.72
45071;BME280;30836;48.906;9.140;2023-04-30T03:47:23;989.14;;;18.83;44.91
45071;BME280;30836;48.906;9.140;2023-04-30T03:48:23;989.14;;;18.79;44.88
45071;BME280;30836;48.906;9.140;2023-04-30T03:49:24;989.15;;;18.77;44.81
45071;BME280;30836;48.906;9.140;2023-04-30T03:50:24;989.15;;;18.75;44.92
45071;BME280;30836;48.906;9.140;2023-04-30T03:51:25;989.14;;;18.72;45.01
45071;BME280;30836;48.906;9.140;2023-04-30T03:52:25;989.15;;;18.70;44.98
45071;BME280;30836;48.906;9.140;2023-04-30T03:53:25;989.14;;;18.66;45.16
45071;BME280;30836;48.906;9.140;2023-04-30T03:54:26;989.14;;;18.60;45.32
45071;BME280;30836;48.906;9.140;2023-04-30T03:55:26;989.14;;;18.56;45.65
45071;BME280;30836;48.906;9.140;2023-04-30T03:56:27;989.10;;;18.54;45.62
45071;BME280;30836;48.906;9.140;2023-04-30T03:57:27;989.10;;;18.53;45.55
45071;BME280;30836;48.906;9.140;2023-04-30T03:58:28;989.06;;;18.52;45.68
45071;BME280;30836;48.906;9.140;2023-04-30T03:59:30;989.04;;;18.51;45.70
45071;BME280;30836;48.906;9.140;2023-04-30T04:00:31;989.06;;;18.55;45.64
45071;BME280;30836;48.906;9.140;2023-04-30T04:01:31;989.06;;;18.63;45.13
45071;BME280;30836;48.906;9.140;2023-04-30T04:02:32;989.10;;;18.75;44.78
45071;BME280;30836;48.906;9.140;2023-04-30T04:03:33;989.06;;;18.85;44.98
45071;BME280;30836;48.906;9.140;2023-04-30T04:04:34;989.08;;;18.83;44.92
45071;BME280;30836;48.906;9.140;2023-04-30T04:05:34;989.08;;;18.79;45.23
45071;BME280;30836;48.906;9.140;2023-04-30T04:06:35;989.12;;;18.83;44.79
45071;BME280;30836;48.906;9.140;2023-04-30T04:07:35;989.15;;;18.90;44.57
45071;BME280;30836;48.906;9.140;2023-04-30T04:08:35;989.12;;;19.01;44.28
45071;BME280;30836;48.906;9.140;2023-04-30T04:09:36;989.15;;;19.11;44.04
45071;BME280;30836;48.906;9.140;2023-04-30T04:10:37;989.15;;;19.18;43.96
45071;BME280;30836;48.906;9.140;2023-04-30T04:11:38;989.15;;;19.23;43.81
45071;BME280;30836;48.906;9.140;2023-04-30T04:12:38;989.15;;;19.29;43.74
45071;BME280;30836;48.906;9.140;2023-04-30T04:13:38;989.17;;;19.36;43.60
45071;BME280;30836;48.906;9.140;2023-04-30T04:14:39;989.15;;;19.43;43.55
45071;BME280;30836;48.906;9.140;2023-04-30T04:15:39;989.19;;;19.50;43.47
45071;BME280;30836;48.906;9.140;2023-04-30T04:16:40;989.21;;;19.54;43.39
45071;BME280;30836;48.906;9.140;2023-04-30T04:17:40;989.21;;;19.57;43.35
45071;BME280;30836;48.906;9.140;2023-04-30T04:18:41;989.25;;;19.61;43.26
45071;BME280;30836;48.906;9.140;2023-04-30T04:19:41;989.27;;;19.67;43.13
45071;BME280;30836;48.906;9.140;2023-04-30T04:20:41;989.29;;;19.71;42.96
45071;BME280;30836;48.906;9.140;2023-04-30T04:21:42;989.33;;;19.75;42.89
45071;BME280;30836;48.906;9.140;2023-04-30T04:22:42;989.35;;;19.79;42.89
45071;BME280;30836;48.906;9.140;2023-04-30T04:23:43;989.33;;;19.82;42.87
45071;BME280;30836;48.906;9.140;2023-04-30T04:24:43;989.35;;;19.85;42.87
45071;BME280;30836;48.906;9.140;2023-04-30T04:25:44;989.37;;;19.89;42.91
45071;BME280;30836;48.906;9.140;2023-04-30T04:26:44;989.37;;;19.92;42.86
45071;BME280;30836;48.906;9.140;2023-04-30T04:27:44;989.35;;;19.88;43.10
45071;BME280;30836;48.906;9.140;2023-04-30T04:28:45;989.37;;;19.75;43.45
45071;BME280;30836;48.906;9.140;2023-04-30T04:29:45;989.39;;;19.61;43.73
45071;BME280;30836;48.906;9.140;2023-04-30T04:30:46;989.37;;;19.49;44.03
45071;BME280;30836;48.906;9.140;2023-04-30T04:31:46;989.37;;;19.38;44.25
45071;BME280;30836;48.906;9.140;2023-04-30T04:32:47;989.33;;;19.28;44.51
45071;BME280;30836;48.906;9.140;2023-04-30T04:33:47;989.39;;;19.19;44.69
45071;BME280;30836;48.906;9.140;2023-04-30T04:34:47;989.37;;;19.12;44.87
45071;BME280;30836;48.906;9.140;2023-04-30T04:35:48;989.37;;;19.09;44.94
45071;BME280;30836;48.906;9.140;2023-04-30T04:36:48;989.39;;;19.05;45.02
45071;BME280;30836;48.906;9.140;2023-04-30T04:37:49;989.39;;;19.03;45.09
45071;BME280;30836;48.906;9.140;2023-04-30T04:38:49;989.41;;;19.02;45.10
45071;BME280;30836;48.906;9.140;2023-04-30T04:39:49;989.43;;;19.02;45.18
45071;BME280;30836;48.906;9.140;2023-04-30T04:40:50;989.43;;;19.02;45.22
45071;BME280;30836;48.906;9.140;2023-04-30T04:41:51;989.43;;;19.02;45.15
45071;BME280;30836;48.906;9.140;2023-04-30T04:42:52;989.43;;;19.02;45.16
45071;BME280;30836;48.906;9.140;2023-04-30T04:43:52;989.43;;;19.01;45.22
45071;BME280;30836;48.906;9.140;2023-04-30T04:44:53;989.45;;;19.00;45.21
45071;BME280;30836;48.906;9.140;2023-04-30T04:45:53;989.45;;;18.98;45.17
45071;BME280;30836;48.906;9.140;2023-04-30T04:46:54;989.47;;;18.97;45.14
45071;BME280;30836;48.906;9.140;2023-04-30T04:47:54;989.45;;;18.96;45.01
45071;BME280;30836;48.906;9.140;2023-04-30T04:48:55;989.45;;;18.94;45.14
45071;BME280;30836;48.906;9.140;2023-04-30T04:49:55;989.47;;;18.92;45.16
45071;BME280;30836;48.906;9.140;2023-04-30T04:50:55;989.47;;;18.92;45.19
45071;BME280;30836;48.906;9.140;2023-04-30T04:51:56;989.45;;;18.94;45.13
45071;BME280;30836;48.906;9.140;2023-04-30T04:52:56;989.51;;;18.95;45.01
45071;BME280;30836;48.906;9.140;2023-04-30T04:53:57;989.49;;;18.95;45.10
45071;BME280;30836;48.906;9.140;2023-04-30T04:54:57;989.49;;;18.94;45.17
45071;BME280;30836;48.906;9.140;2023-04-30T04:55:58;989.47;;;18.94;45.20
45071;BME280;30836;48.906;9.140;2023-04-30T04:56:58;989.49;;;18.95;45.21
45071;BME280;30836;48.906;9.140;2023-04-30T04:57:58;989.49;;;18.95;45.19
45071;BME280;30836;48.906;9.140;2023-04-30T04:58:59;989.45;;;18.94;45.19
45071;BME280;30836;48.906;9.140;2023-04-30T05:00:00;989.43;;;18.92;45.38
45071;BME280;30836;48.906;9.140;2023-04-30T05:01:00;989.43;;;18.90;45.40
45071;BME280;30836;48.906;9.140;2023-04-30T05:02:01;989.41;;;18.91;45.22
45071;BME280;30836;48.906;9.140;2023-04-30T05:03:02;989.39;;;18.93;45.10
45071;BME280;30836;48.906;9.140;2023-04-30T05:04:02;989.41;;;18.94;45.17
45071;BME280;30836;48.906;9.140;2023-04-30T05:05:03;989.41;;;18.93;45.23
45071;BME280;30836;48.906;9.140;2023-04-30T05:06:04;989.43;;;18.91;45.21
45071;BME280;30836;48.906;9.140;2023-04-30T05:07:04;989.45;;;18.88;45.30
45071;BME280;30836;48.906;9.140;2023-04-30T05:08:05;989.47;;;18.88;45.25
45071;BME280;30836;48.906;9.140;2023-04-30T05:09:05;989.47;;;18.88;45.27
45071;BME280;30836;48.906;9.140;2023-04-30T05:10:06;989.45;;;18.81;45.56
45071;BME280;30836;48.906;9.140;2023-04-30T05:11:07;989.45;;;18.73;45.68
45071;BME280;30836;48.906;9.140;2023-04-30T05:12:07;989.43;;;18.68;45.72
45071;BME280;30836;48.906;9.140;2023-04-30T05:13:08;989.43;;;18.66;45.62
45071;BME280;30836;48.906;9.140;2023-04-30T05:14:08;989.43;;;18.67;45.82
45071;BME280;30836;48.906;9.140;2023-04-30T05:15:09;989.45;;;18.68;45.76
45071;BME280;30836;48.906;9.140;2023-04-30T05:16:09;989.47;;;18.70;45.74
45071;BME280;30836;48.906;9.140;2023-04-30T05:17:10;989.49;;;18.70;45.66
45071;BME280;30836;48.906;9.140;2023-04-30T05:18:10;989.49;;;18.68;45.79
45071;BME280;30836;48.906;9.140;2023-04-30T05:19:10;989.47;;;18.67;45.77
45071;BME280;30836;48.906;9.140;2023-04-30T05:20:11;989.51;;;18.68;45.68
45071;BME280;30836;48.906;9.140;2023-04-30T05:21:12;989.49;;;18.73;45.59
45071;BME280;30836;48.906;9.140;2023-04-30T05:22:12;989.51;;;18.82;45.35
45071;BME280;30836;48.906;9.140;2023-04-30T05:23:13;989.51;;;18.96;44.82
45071;BME280;30836;48.906;9.140;2023-04-30T05:24:13;989.55;;;19.14;44.59
45071;BME280;30836;48.906;9.140;2023-04-30T05:25:13;989.53;;;19.31;44.29
45071;BME280;30836;48.906;9.140;2023-04-30T05:26:14;989.53;;;19.45;43.90
45071;BME280;30836;48.906;9.140;2023-04-30T05:27:14;989.49;;;19.57;43.52
45071;BME280;30836;48.906;9.140;2023-04-30T05:28:15;989.51;;;19.67;43.41
45071;BME280;30836;48.906;9.140;2023-04-30T05:29:15;989.53;;;19.76;43.15
45071;BME280;30836;48.906;9.140;2023-04-30T05:30:16;989.53;;;19.85;43.09
45071;BME280;30836;48.906;9.140;2023-04-30T05:31:16;989.53;;;19.93;43.03
45071;BME280;30836;48.906;9.140;2023-04-30T05:32:17;989.51;;;20.00;42.81
45071;BME280;30836;48.906;9.140;2023-04-30T05:33:17;989.55;;;20.07;42.81
45071;BME280;30836;48.906;9.140;2023-04-30T05:34:17;989.53;;;20.13;42.55
45071;BME280;30836;48.906;9.140;2023-04-30T05:35:18;989.57;;;20.17;42.53
45071;BME280;30836;48.906;9.140;2023-04-30T05:36:18;989.53;;;20.18;42.49
45071;BME280;30836;48.906;9.140;2023-04-30T05:37:19;989.57;;;20.20;42.44
45071;BME280;30836;48.906;9.140;2023-04-30T05:38:19;989.55;;;20.23;42.34
45071;BME280;30836;48.906;9.140;2023-04-30T05:39:20;989.55;;;20.26;42.17
45071;BME280;30836;48.906;9.140;2023-04-30T05:40:20;989.55;;;20.28;42.17
45071;BME280;30836;48.906;9.140;2023-04-30T05:41:21;989.57;;;20.31;42.13
45071;BME280;30836;48.906;9.140;2023-04-30T05:42:21;989.57;;;20.34;41.92
45071;BME280;30836;48.906;9.140;2023-04-30T05:43:21;989.55;;;20.38;41.91
45071;BME280;30836;48.906;9.140;2023-04-30T05:44:22;989.55;;;20.42;41.80
45071;BME280;30836;48.906;9.140;2023-04-30T05:45:22;989.57;;;20.46;41.61
45071;BME280;30836;48.906;9.140;2023-04-30T05:46:23;989.57;;;20.50;41.43
45071;BME280;30836;48.906;9.140;2023-04-30T05:47:23;989.55;;;20.53;41.40
45071;BME280;30836;48.906;9.140;2023-04-30T05:48:24;989.53;;;20.55;41.35
45071;BME280;30836;48.906;9.140;2023-04-30T05:49:25;989.53;;;20.55;41.39
45071;BME280;30836;48.906;9.140;2023-04-30T05:50:26;989.57;;;20.53;41.45
45071;BME280;30836;48.906;9.140;2023-04-30T05:51:26;989.55;;;20.52;41.55
45071;BME280;30836;48.906;9.140;2023-04-30T05:52:27;989.55;;;20.54;41.47
45071;BME280;30836;48.906;9.140;2023-04-30T05:53:27;989.53;;;20.58;41.43
45071;BME280;30836;48.906;9.140;2023-04-30T05:54:30;989.51;;;20.61;41.53